KSDY

Sidney-Richland Regional Airport

Sidney, Montana, USA
METAR KSDY 232256Z AUTO 28009KT 10SM CLR 00/M06 A3012 RMK AO2 SLP233 T00001056 FZRANO
Observed Flight Rules
Jan-23 @ 22:56 UTC (29 minutes ago) Visual Flight Rules
Wind Visibility Clouds
280° at 9 knots 10 miles
  • Clear skies
Temperatures Readings
Current 0°C / 32°F
Dewpoint -6°C / 21°F
Humidity 64%
Altimeter 30.12" Hg
Pressure 1023.3 hPa
Elevation 605
METAR KSDY 232256Z AUTO 28009KT 10SM CLR 00/M06 A3012 RMK AO2 SLP233 T00001056 FZRANO
Observed Flight Rules
Jan-23 @ 22:56 UTC
(29 minutes ago)
VFR
Wind Visibility
280° at 9 knots 10 miles
Clouds
  • Clear skies
Temperature Dewpoint
0°C / 32°F -6°C / 21°F
Humidity Altimeter Pressure
64% 30.12" Hg 1023.3 hPa